KSANYPDN

Guest
Details From KSAN - San Diego Intl
To YPDN - Darwin Intl
Flight Number -
Tags Generated
Created
Modified
Stats Distance 6,908 nm / 12,793 km
Max Altitude 0 ft / 0 m
Waypoints 3
Social Downloads 1
Likes 0
Share VATSIM

Download

Looking for another format? Having issues loading an existing format? Contact us
Advertisement - Login to hide

Notes

Generated

Route

KSAN WODJA YPDN

ID Type Via Altitude Latitude Longitude Leg Dist Tot Dist Heading (true) Name
O KSAN APT - 0 ft / 0 m 32.73712˚ -117.20435˚ - 0 nm - -
WODJA FIX - 0 ft / 0 m -12.29332˚ 131.04166˚ 6895 nm 6895 nm 271° / 239° -
O YPDN APT - 0 ft / 0 m -12.40889˚ 130.87067˚ 12 nm 6907 nm 235° / 235° -

Altitude Profile

Advertisement - Login to hide

Weather


0- 5 10 15 20 25 30 35+ Temperature / ° C

Clouds and Precipitation
Forecast for 2017-12-14 18:00 UTC. Updated 26 minutes ago

Ground ~20,000 ft ~40,000 ft Winds

KSAN

Details ICAO KSAN (SAN)
Name San Diego Intl
Region United States
Timezone America/Los_Angeles (UTC-8.0)
Stats Elevation 17 ft / 5 m (AMSL)
Location 32.733556° -117.189658°
Runways 1
Magnetic Variation 11.525° E

METAR

KSAN 141651Z 00000KT 10SM CLR 16/M02 A3005 RMK AO2 SLP175 T01561017

Decode

TAF

TAF AMD KSAN 141510Z 1415/1518 VRB04KT P6SM SKC FM142100 30009KT P6SM SKC FM150100 VRB04KT P6SM SKC WS015/06025KT FM150600 VRB04KT P6SM SKC

Decode

Departure Runways

ID Width Length Bearing (true) Bearing (mag) Surface Threshold Offset Overrun Length
09 200 ft / 61 m 9,387 ft / 2,861 m 106.07° 94.54° Asphalt 699 ft / 213 m 269 ft / 82 m
27 200 ft / 61 m 9,387 ft / 2,861 m 286.08° 274.55° Asphalt 1,811 ft / 552 m 0 ft / 0 m

YPDN

Details ICAO YPDN (DRW)
Name Darwin Intl
Region Australia
Timezone Australia/Darwin (UTC+9.5)
Stats Elevation 102 ft / 31 m (AMSL)
Location -12.415064° 130.875278°
Runways 2
Magnetic Variation 2.670° E

METAR

YPDN 141730Z 32006KT 9999 FEW020 28/25 Q1006

Decode

TAF

TAF AMD YPDN 141116Z 1412/1518 27004KT 9999 FEW020 FM141900 33005KT 9999 FEW020 FM150300 30010KT 9999 SCT030 PROB30 TEMPO 1417/1422 VRB20G35KT 1000 TSRA BKN010 SCT020CB PROB30 TEMPO 1506/1512 VRB20G35KT 1000 TSRA BKN010 SCT020CB PROB30 TEMPO 1515/1518 VRB20G35KT 1000 TSRA BKN010 SCT020CB

Decode

Destination Runways

ID Width Length Bearing (true) Bearing (mag) Surface Threshold Offset Overrun Length
11 197 ft / 60 m 10,997 ft / 3,352 m 109.02° 106.35° Asphalt 0 ft / 0 m 0 ft / 0 m
18 98 ft / 30 m 5,029 ft / 1,533 m 179.85° 177.18° Asphalt 0 ft / 0 m 0 ft / 0 m
29 197 ft / 60 m 10,997 ft / 3,352 m 289.02° 286.35° Asphalt 0 ft / 0 m 0 ft / 0 m
36 98 ft / 30 m 5,029 ft / 1,533 m 359.85° 357.18° Asphalt 0 ft / 0 m 0 ft / 0 m

Approach Navaids

Runway Type Ident Frequency Range Bearing (true) Bearing (mag) Slope Elevation
29 Localiser IDN 109.70 MHz 18 nm / 33 km 289.00° 286.33° - 103 ft / 31 m (AMSL)
29 Glidescope IDN 109.70 MHz 10 nm / 19 km 289.02° 286.35° 3.00° 103 ft / 31 m (AMSL)